sensor_id;sensor_type;location;lat;lon;timestamp;pressure;altitude;pressure_sealevel;temperature;humidity
60319;BME280;46163;52.306;5.634;2023-02-22T00:00:20;101410.47;;;16.61;56.54
60319;BME280;46163;52.306;5.634;2023-02-22T00:03:14;101406.34;;;16.59;56.49
60319;BME280;46163;52.306;5.634;2023-02-22T00:05:44;101393.38;;;16.56;56.42
60319;BME280;46163;52.306;5.634;2023-02-22T00:08:16;101405.16;;;16.55;56.57
60319;BME280;46163;52.306;5.634;2023-02-22T00:10:42;101400.84;;;16.54;56.45
60319;BME280;46163;52.306;5.634;2023-02-22T00:13:10;101404.59;;;16.53;56.54
60319;BME280;46163;52.306;5.634;2023-02-22T00:15:37;101408.50;;;16.50;56.36
60319;BME280;46163;52.306;5.634;2023-02-22T00:18:06;101407.69;;;16.50;56.45
60319;BME280;46163;52.306;5.634;2023-02-22T00:20:35;101407.94;;;16.48;56.56
60319;BME280;46163;52.306;5.634;2023-02-22T00:23:04;101405.47;;;16.47;56.34
60319;BME280;46163;52.306;5.634;2023-02-22T00:25:32;101401.16;;;16.46;56.36
60319;BME280;46163;52.306;5.634;2023-02-22T00:27:58;101404.88;;;16.45;56.48
60319;BME280;46163;52.306;5.634;2023-02-22T00:30:26;101403.25;;;16.44;56.40
60319;BME280;46163;52.306;5.634;2023-02-22T00:32:54;101401.00;;;16.40;56.31
60319;BME280;46163;52.306;5.634;2023-02-22T00:35:20;101404.28;;;16.43;56.48
60319;BME280;46163;52.306;5.634;2023-02-22T00:37:47;101405.31;;;16.42;56.35
60319;BME280;46163;52.306;5.634;2023-02-22T00:40:17;101390.25;;;16.40;56.24
60319;BME280;46163;52.306;5.634;2023-02-22T00:42:43;101392.34;;;16.38;56.41
60319;BME280;46163;52.306;5.634;2023-02-22T00:45:09;101394.44;;;16.36;56.41
60319;BME280;46163;52.306;5.634;2023-02-22T00:47:35;101393.41;;;16.37;56.29
60319;BME280;46163;52.306;5.634;2023-02-22T00:50:00;101390.94;;;16.36;56.27
60319;BME280;46163;52.306;5.634;2023-02-22T00:52:26;101386.84;;;16.33;56.24
60319;BME280;46163;52.306;5.634;2023-02-22T00:54:53;101398.19;;;16.35;56.13
60319;BME280;46163;52.306;5.634;2023-02-22T00:57:20;101393.84;;;16.34;56.36
60319;BME280;46163;52.306;5.634;2023-02-22T00:59:45;101391.38;;;16.33;56.13
60319;BME280;46163;52.306;5.634;2023-02-22T01:02:11;101384.38;;;16.32;56.13
60319;BME280;46163;52.306;5.634;2023-02-22T01:04:37;101381.91;;;16.30;56.34
60319;BME280;46163;52.306;5.634;2023-02-22T01:07:03;101391.84;;;16.30;56.14
60319;BME280;46163;52.306;5.634;2023-02-22T01:09:29;101389.59;;;16.27;56.20
60319;BME280;46163;52.306;5.634;2023-02-22T01:11:55;101385.28;;;16.26;56.35
60319;BME280;46163;52.306;5.634;2023-02-22T01:14:22;101384.47;;;16.25;56.19
60319;BME280;46163;52.306;5.634;2023-02-22T01:16:54;101377.44;;;16.24;56.14
60319;BME280;46163;52.306;5.634;2023-02-22T01:19:20;101373.09;;;16.23;56.26
60319;BME280;46163;52.306;5.634;2023-02-22T01:21:47;101360.72;;;16.22;56.19
60319;BME280;46163;52.306;5.634;2023-02-22T01:24:13;101358.03;;;16.22;56.34
60319;BME280;46163;52.306;5.634;2023-02-22T01:26:41;101354.75;;;16.20;56.21
60319;BME280;46163;52.306;5.634;2023-02-22T01:29:11;101353.13;;;16.19;56.13
60319;BME280;46163;52.306;5.634;2023-02-22T01:31:40;101354.19;;;16.18;56.16
60319;BME280;46163;52.306;5.634;2023-02-22T01:34:09;101347.75;;;16.19;56.10
60319;BME280;46163;52.306;5.634;2023-02-22T01:36:34;101349.84;;;16.17;56.22
60319;BME280;46163;52.306;5.634;2023-02-22T01:39:00;101348.22;;;16.16;56.22
60319;BME280;46163;52.306;5.634;2023-02-22T01:41:25;101349.22;;;16.15;56.16
60319;BME280;46163;52.306;5.634;2023-02-22T01:43:51;101342.22;;;16.14;56.24
60319;BME280;46163;52.306;5.634;2023-02-22T01:46:22;101338.72;;;16.14;56.29
60319;BME280;46163;52.306;5.634;2023-02-22T01:48:54;101340.59;;;16.13;56.20
60319;BME280;46163;52.306;5.634;2023-02-22T01:51:24;101338.97;;;16.12;55.89
60319;BME280;46163;52.306;5.634;2023-02-22T01:54:00;101338.13;;;16.11;56.04
60319;BME280;46163;52.306;5.634;2023-02-22T01:56:29;101333.00;;;16.10;56.06
60319;BME280;46163;52.306;5.634;2023-02-22T01:59:00;101331.13;;;16.10;56.11
60319;BME280;46163;52.306;5.634;2023-02-22T02:01:28;101324.34;;;16.08;56.15
60319;BME280;46163;52.306;5.634;2023-02-22T02:03:56;101329.72;;;16.08;55.98
60319;BME280;46163;52.306;5.634;2023-02-22T02:06:23;101329.72;;;16.08;55.81
60319;BME280;46163;52.306;5.634;2023-02-22T02:09:26;101331.59;;;16.07;55.94
60319;BME280;46163;52.306;5.634;2023-02-22T02:11:51;101331.78;;;16.06;55.98
60319;BME280;46163;52.306;5.634;2023-02-22T02:14:17;101324.78;;;16.05;56.18
60319;BME280;46163;52.306;5.634;2023-02-22T02:16:48;101315.09;;;16.04;56.14
60319;BME280;46163;52.306;5.634;2023-02-22T02:22:14;101309.13;;;16.02;56.00
60319;BME280;46163;52.306;5.634;2023-02-22T02:30:42;101309.78;;;15.97;56.17
60319;BME280;46163;52.306;5.634;2023-02-22T02:38:34;101301.75;;;15.97;55.87
60319;BME280;46163;52.306;5.634;2023-02-22T02:41:12;101299.06;;;15.97;55.97
60319;BME280;46163;52.306;5.634;2023-02-22T02:46:17;101289.59;;;15.95;55.85
60319;BME280;46163;52.306;5.634;2023-02-22T02:48:50;101291.69;;;15.93;55.91
60319;BME280;46163;52.306;5.634;2023-02-22T02:51:20;101283.66;;;15.93;55.94
60319;BME280;46163;52.306;5.634;2023-02-22T02:53:47;101286.31;;;15.93;55.91
60319;BME280;46163;52.306;5.634;2023-02-22T02:56:16;101283.88;;;15.91;56.08
60319;BME280;46163;52.306;5.634;2023-02-22T02:58:44;101278.50;;;15.91;55.95
60319;BME280;46163;52.306;5.634;2023-02-22T03:01:19;101278.94;;;15.88;55.98
60319;BME280;46163;52.306;5.634;2023-02-22T03:06:49;101272.16;;;15.86;56.19
60319;BME280;46163;52.306;5.634;2023-02-22T03:09:26;101273.78;;;15.87;55.99
60319;BME280;46163;52.306;5.634;2023-02-22T03:12:18;101270.28;;;15.86;56.02
60319;BME280;46163;52.306;5.634;2023-02-22T03:14:56;101267.84;;;15.85;55.72
60319;BME280;46163;52.306;5.634;2023-02-22T03:20:26;101260.03;;;15.83;55.94
60319;BME280;46163;52.306;5.634;2023-02-22T03:25:45;101257.41;;;15.76;55.76
60319;BME280;46163;52.306;5.634;2023-02-22T03:28:15;101258.59;;;15.80;55.85
60319;BME280;46163;52.306;5.634;2023-02-22T03:30:55;101262.09;;;15.81;55.81
60319;BME280;46163;52.306;5.634;2023-02-22T03:33:29;101256.94;;;15.79;55.81
60319;BME280;46163;52.306;5.634;2023-02-22T03:36:04;101258.00;;;15.78;56.00
60319;BME280;46163;52.306;5.634;2023-02-22T03:38:32;101255.31;;;15.78;55.86
60319;BME280;46163;52.306;5.634;2023-02-22T03:41:01;101250.84;;;15.72;55.92
60319;BME280;46163;52.306;5.634;2023-02-22T03:43:31;101258.22;;;15.77;55.78
60319;BME280;46163;52.306;5.634;2023-02-22T03:46:02;101254.13;;;15.74;55.90
60319;BME280;46163;52.306;5.634;2023-02-22T03:51:03;101252.50;;;15.73;55.77
60319;BME280;46163;52.306;5.634;2023-02-22T03:53:31;101242.19;;;15.70;55.92
60319;BME280;46163;52.306;5.634;2023-02-22T03:55:59;101248.16;;;15.72;55.92
60319;BME280;46163;52.306;5.634;2023-02-22T03:58:30;101238.47;;;15.71;55.81
60319;BME280;46163;52.306;5.634;2023-02-22T04:00:58;101247.34;;;15.72;55.69
60319;BME280;46163;52.306;5.634;2023-02-22T04:03:24;101236.00;;;15.70;55.90
60319;BME280;46163;52.306;5.634;2023-02-22T04:05:50;101232.50;;;15.69;55.87
60319;BME280;46163;52.306;5.634;2023-02-22T04:08:16;101230.06;;;15.68;55.81
60319;BME280;46163;52.306;5.634;2023-02-22T04:10:41;101227.59;;;15.66;55.69
60319;BME280;46163;52.306;5.634;2023-02-22T04:13:07;101228.66;;;15.65;55.77
60319;BME280;46163;52.306;5.634;2023-02-22T04:15:33;101225.16;;;15.65;55.84
60319;BME280;46163;52.306;5.634;2023-02-22T04:17:59;101218.72;;;15.66;55.78
60319;BME280;46163;52.306;5.634;2023-02-22T04:20:24;101224.34;;;15.64;55.73
60319;BME280;46163;52.306;5.634;2023-02-22T04:22:51;101217.91;;;15.65;55.79
60319;BME280;46163;52.306;5.634;2023-02-22T04:25:18;101215.25;;;15.65;55.76
60319;BME280;46163;52.306;5.634;2023-02-22T04:27:43;101219.56;;;15.66;55.72
60319;BME280;46163;52.306;5.634;2023-02-22T04:30:10;101219.31;;;15.68;55.99
60319;BME280;46163;52.306;5.634;2023-02-22T04:32:37;101221.78;;;15.69;55.76
60319;BME280;46163;52.306;5.634;2023-02-22T04:35:04;101216.19;;;15.71;55.73
60319;BME280;46163;52.306;5.634;2023-02-22T04:37:30;101215.28;;;15.77;55.59
60319;BME280;46163;52.306;5.634;2023-02-22T04:39:55;101220.19;;;15.80;55.54
60319;BME280;46163;52.306;5.634;2023-02-22T04:42:20;101206.94;;;15.85;55.54
60319;BME280;46163;52.306;5.634;2023-02-22T04:44:46;101200.06;;;15.89;55.28
60319;BME280;46163;52.306;5.634;2023-02-22T04:47:12;101206.75;;;15.98;55.13
60319;BME280;46163;52.306;5.634;2023-02-22T04:49:39;101208.44;;;16.11;54.89
60319;BME280;46163;52.306;5.634;2023-02-22T04:52:04;101196.56;;;16.19;54.67
60319;BME280;46163;52.306;5.634;2023-02-22T04:54:30;101199.16;;;16.25;54.71
60319;BME280;46163;52.306;5.634;2023-02-22T04:56:57;101192.41;;;16.34;54.27
60319;BME280;46163;52.306;5.634;2023-02-22T04:59:23;101181.34;;;16.43;54.42
60319;BME280;46163;52.306;5.634;2023-02-22T05:01:48;101179.34;;;16.50;54.02
60319;BME280;46163;52.306;5.634;2023-02-22T05:04:14;101183.78;;;16.56;53.95
60319;BME280;46163;52.306;5.634;2023-02-22T05:06:39;101178.91;;;16.64;53.79
60319;BME280;46163;52.306;5.634;2023-02-22T05:09:05;101173.44;;;16.71;53.54
60319;BME280;46163;52.306;5.634;2023-02-22T05:11:30;101173.09;;;16.79;53.33
60319;BME280;46163;52.306;5.634;2023-02-22T05:13:56;101166.81;;;16.85;53.34
60319;BME280;46163;52.306;5.634;2023-02-22T05:16:22;101161.28;;;16.92;52.93
60319;BME280;46163;52.306;5.634;2023-02-22T05:18:48;101159.28;;;16.99;52.82
60319;BME280;46163;52.306;5.634;2023-02-22T05:21:13;101154.03;;;17.04;52.62
60319;BME280;46163;52.306;5.634;2023-02-22T05:23:38;101156.59;;;17.11;52.59
60319;BME280;46163;52.306;5.634;2023-02-22T05:26:04;101159.41;;;17.16;52.54
60319;BME280;46163;52.306;5.634;2023-02-22T05:28:31;101160.53;;;17.20;52.43
60319;BME280;46163;52.306;5.634;2023-02-22T05:30:56;101152.84;;;17.23;52.29
60319;BME280;46163;52.306;5.634;2023-02-22T05:33:22;101157.50;;;17.28;52.23
60319;BME280;46163;52.306;5.634;2023-02-22T05:35:47;101156.22;;;17.31;51.99
60319;BME280;46163;52.306;5.634;2023-02-22T05:38:14;101152.81;;;17.35;52.21
60319;BME280;46163;52.306;5.634;2023-02-22T05:40:41;101149.88;;;17.37;52.12
60319;BME280;46163;52.306;5.634;2023-02-22T05:43:07;101153.16;;;17.39;51.99
60319;BME280;46163;52.306;5.634;2023-02-22T05:45:33;101148.34;;;17.41;52.04
60319;BME280;46163;52.306;5.634;2023-02-22T05:48:00;101138.16;;;17.43;52.05
60319;BME280;46163;52.306;5.634;2023-02-22T05:50:27;101138.53;;;17.46;51.72
60319;BME280;46163;52.306;5.634;2023-02-22T05:52:54;101138.03;;;17.49;51.89
60319;BME280;46163;52.306;5.634;2023-02-22T05:55:21;101124.09;;;17.52;51.71
60319;BME280;46163;52.306;5.634;2023-02-22T05:57:48;101120.94;;;17.56;51.71
60319;BME280;46163;52.306;5.634;2023-02-22T06:00:23;101117.50;;;17.60;51.61
60319;BME280;46163;52.306;5.634;2023-02-22T06:03:03;101122.19;;;17.65;51.51
60319;BME280;46163;52.306;5.634;2023-02-22T06:05:30;101122.75;;;17.67;51.30
60319;BME280;46163;52.306;5.634;2023-02-22T06:07:56;101116.31;;;17.68;51.66
60319;BME280;46163;52.306;5.634;2023-02-22T06:10:22;101109.19;;;17.73;51.49
60319;BME280;46163;52.306;5.634;2023-02-22T06:12:49;101112.47;;;17.75;51.26
60319;BME280;46163;52.306;5.634;2023-02-22T06:15:15;101108.22;;;17.79;51.28
60319;BME280;46163;52.306;5.634;2023-02-22T06:17:43;101101.75;;;17.80;51.19
60319;BME280;46163;52.306;5.634;2023-02-22T06:20:09;101112.06;;;17.84;51.09
60319;BME280;46163;52.306;5.634;2023-02-22T06:22:35;101102.94;;;17.85;51.09
60319;BME280;46163;52.306;5.634;2023-02-22T06:25:02;101103.50;;;17.87;51.37
60319;BME280;46163;52.306;5.634;2023-02-22T06:27:31;101106.53;;;17.90;51.40
60319;BME280;46163;52.306;5.634;2023-02-22T06:29:57;101115.19;;;17.92;51.37
60319;BME280;46163;52.306;5.634;2023-02-22T06:32:23;101107.66;;;17.94;51.33
60319;BME280;46163;52.306;5.634;2023-02-22T06:34:49;101106.28;;;17.92;51.75
60319;BME280;46163;52.306;5.634;2023-02-22T06:37:14;101103.66;;;17.97;51.66
60319;BME280;46163;52.306;5.634;2023-02-22T06:39:40;101108.00;;;17.98;51.86
60319;BME280;46163;52.306;5.634;2023-02-22T06:42:05;101102.38;;;17.99;51.62
60319;BME280;46163;52.306;5.634;2023-02-22T06:44:31;101106.72;;;18.00;51.71
60319;BME280;46163;52.306;5.634;2023-02-22T06:46:56;101094.88;;;18.01;51.65
60319;BME280;46163;52.306;5.634;2023-02-22T06:49:24;101108.09;;;18.03;51.55
60319;BME280;46163;52.306;5.634;2023-02-22T06:51:53;101102.13;;;18.01;51.46
60319;BME280;46163;52.306;5.634;2023-02-22T06:54:20;101112.66;;;18.02;51.04
60319;BME280;46163;52.306;5.634;2023-02-22T06:56:46;101107.84;;;18.04;50.86
60319;BME280;46163;52.306;5.634;2023-02-22T06:59:11;101115.09;;;18.04;51.35
60319;BME280;46163;52.306;5.634;2023-02-22T07:01:42;101116.16;;;18.03;51.27
60319;BME280;46163;52.306;5.634;2023-02-22T07:04:08;101117.81;;;18.04;51.30
60319;BME280;46163;52.306;5.634;2023-02-22T07:06:33;101117.81;;;18.04;51.19
60319;BME280;46163;52.306;5.634;2023-02-22T07:08:59;101117.81;;;18.04;51.32
60319;BME280;46163;52.306;5.634;2023-02-22T07:11:25;101112.41;;;18.04;51.21
60319;BME280;46163;52.306;5.634;2023-02-22T07:13:51;101102.94;;;18.01;51.53
60319;BME280;46163;52.306;5.634;2023-02-22T07:16:16;101106.47;;;18.02;51.36
60319;BME280;46163;52.306;5.634;2023-02-22T07:18:42;101105.41;;;18.03;51.31
60319;BME280;46163;52.306;5.634;2023-02-22T07:21:07;101100.81;;;18.03;51.33
60319;BME280;46163;52.306;5.634;2023-02-22T07:23:33;101101.63;;;18.04;51.34
60319;BME280;46163;52.306;5.634;2023-02-22T07:26:00;101101.63;;;18.04;51.27
60319;BME280;46163;52.306;5.634;2023-02-22T07:28:26;101094.38;;;18.04;51.52
60319;BME280;46163;52.306;5.634;2023-02-22T07:30:51;101088.56;;;17.96;51.32
60319;BME280;46163;52.306;5.634;2023-02-22T07:33:17;101100.81;;;18.03;51.27
60319;BME280;46163;52.306;5.634;2023-02-22T07:35:49;101102.47;;;18.04;51.35
60319;BME280;46163;52.306;5.634;2023-02-22T07:38:16;101092.25;;;18.06;51.33
60319;BME280;46163;52.306;5.634;2023-02-22T07:40:42;101091.69;;;18.04;51.60
60319;BME280;46163;52.306;5.634;2023-02-22T07:43:21;101100.09;;;18.08;51.37
60319;BME280;46163;52.306;5.634;2023-02-22T07:45:59;101098.47;;;18.07;51.17
60319;BME280;46163;52.306;5.634;2023-02-22T07:48:27;101096.59;;;18.07;51.31
60319;BME280;46163;52.306;5.634;2023-02-22T07:50:53;101102.00;;;18.07;51.25
60319;BME280;46163;52.306;5.634;2023-02-22T07:53:28;101107.38;;;18.07;51.20
60319;BME280;46163;52.306;5.634;2023-02-22T07:55:58;101103.03;;;18.06;51.35
60319;BME280;46163;52.306;5.634;2023-02-22T07:58:28;101106.56;;;18.07;51.09
60319;BME280;46163;52.306;5.634;2023-02-22T08:00:56;101107.94;;;18.10;51.12
60319;BME280;46163;52.306;5.634;2023-02-22T08:03:24;101103.63;;;18.08;51.28
60319;BME280;46163;52.306;5.634;2023-02-22T08:05:55;101100.94;;;18.08;51.19
60319;BME280;46163;52.306;5.634;2023-02-22T08:08:21;101105.25;;;18.10;51.12
60319;BME280;46163;52.306;5.634;2023-02-22T08:10:48;101096.50;;;18.02;51.05
60319;BME280;46163;52.306;5.634;2023-02-22T08:13:15;101103.13;;;18.12;51.18
60319;BME280;46163;52.306;5.634;2023-02-22T08:15:41;101101.50;;;18.11;50.96
60319;BME280;46163;52.306;5.634;2023-02-22T08:18:10;101093.97;;;18.13;50.94
60319;BME280;46163;52.306;5.634;2023-02-22T08:20:36;101104.19;;;18.11;51.20
60319;BME280;46163;52.306;5.634;2023-02-22T08:23:03;101107.69;;;18.11;51.17
60319;BME280;46163;52.306;5.634;2023-02-22T08:25:29;101108.50;;;18.12;51.13
60319;BME280;46163;52.306;5.634;2023-02-22T08:28:03;101110.63;;;18.10;51.15
60319;BME280;46163;52.306;5.634;2023-02-22T08:30:30;101106.88;;;18.11;51.07
60319;BME280;46163;52.306;5.634;2023-02-22T08:32:56;101107.44;;;18.13;51.18
60319;BME280;46163;52.306;5.634;2023-02-22T08:35:23;101101.25;;;18.12;51.07
60319;BME280;46163;52.306;5.634;2023-02-22T08:37:52;101104.75;;;18.13;51.12
60319;BME280;46163;52.306;5.634;2023-02-22T08:40:21;101099.38;;;18.13;51.29
60319;BME280;46163;52.306;5.634;2023-02-22T08:42:47;101092.91;;;18.14;50.96
60319;BME280;46163;52.306;5.634;2023-02-22T08:45:12;101089.41;;;18.13;51.05
60319;BME280;46163;52.306;5.634;2023-02-22T08:47:39;101089.41;;;18.13;51.01
60319;BME280;46163;52.306;5.634;2023-02-22T08:50:05;101091.84;;;18.15;50.93
60319;BME280;46163;52.306;5.634;2023-02-22T08:52:31;101096.19;;;18.16;50.93
60319;BME280;46163;52.306;5.634;2023-02-22T08:54:57;101083.75;;;18.15;50.98
60319;BME280;46163;52.306;5.634;2023-02-22T08:57:22;101088.13;;;18.16;51.08
60319;BME280;46163;52.306;5.634;2023-02-22T08:59:48;101092.44;;;18.17;50.77
60319;BME280;46163;52.306;5.634;2023-02-22T09:02:16;101087.06;;;18.17;51.02
60319;BME280;46163;52.306;5.634;2023-02-22T09:04:42;101096.75;;;18.18;50.86
60319;BME280;46163;52.306;5.634;2023-02-22T09:07:08;101091.38;;;18.18;50.97
60319;BME280;46163;52.306;5.634;2023-02-22T09:09:34;101093.00;;;18.19;50.84
60319;BME280;46163;52.306;5.634;2023-02-22T09:12:00;101083.03;;;18.19;50.50
60319;BME280;46163;52.306;5.634;2023-02-22T09:14:25;101087.63;;;18.19;50.81
60319;BME280;46163;52.306;5.634;2023-02-22T09:16:51;101089.00;;;18.21;50.88
60319;BME280;46163;52.306;5.634;2023-02-22T09:19:21;101089.25;;;18.20;50.90
60319;BME280;46163;52.306;5.634;2023-02-22T09:21:54;101093.31;;;18.22;50.29
60319;BME280;46163;52.306;5.634;2023-02-22T09:24:20;101087.94;;;18.22;50.81
60319;BME280;46163;52.306;5.634;2023-02-22T09:26:46;101081.72;;;18.22;50.41
60319;BME280;46163;52.306;5.634;2023-02-22T09:29:16;101079.84;;;18.22;50.81
60319;BME280;46163;52.306;5.634;2023-02-22T09:31:41;101071.78;;;18.22;50.84
60319;BME280;46163;52.306;5.634;2023-02-22T09:34:07;101073.19;;;18.25;50.95
60319;BME280;46163;52.306;5.634;2023-02-22T09:36:41;101060.53;;;18.25;50.99
60319;BME280;46163;52.306;5.634;2023-02-22T09:39:07;101055.94;;;18.26;50.87
60319;BME280;46163;52.306;5.634;2023-02-22T09:44:21;101058.41;;;18.27;51.09
60319;BME280;46163;52.306;5.634;2023-02-22T09:46:48;101063.53;;;18.29;50.78
60319;BME280;46163;52.306;5.634;2023-02-22T09:54:51;101077.00;;;18.29;51.13
60319;BME280;46163;52.306;5.634;2023-02-22T09:57:36;101074.56;;;18.27;50.99
60319;BME280;46163;52.306;5.634;2023-02-22T10:00:20;101074.00;;;18.25;50.83
60319;BME280;46163;52.306;5.634;2023-02-22T10:04:11;101073.19;;;18.25;51.15
60319;BME280;46163;52.306;5.634;2023-02-22T10:06:10;101064.28;;;18.24;51.05
60319;BME280;46163;52.306;5.634;2023-02-22T10:08:37;101059.72;;;18.25;51.17
60319;BME280;46163;52.306;5.634;2023-02-22T10:14:31;101052.66;;;18.24;50.84
60319;BME280;46163;52.306;5.634;2023-02-22T10:25:14;101016.59;;;18.25;51.23
60319;BME280;46163;52.306;5.634;2023-02-22T10:27:47;101019.31;;;18.25;51.09
60319;BME280;46163;52.306;5.634;2023-02-22T10:30:29;101016.34;;;18.26;51.00
60319;BME280;46163;52.306;5.634;2023-02-22T10:35:59;101012.34;;;18.29;51.09
60319;BME280;46163;52.306;5.634;2023-02-22T10:38:28;101003.19;;;18.30;50.92
60319;BME280;46163;52.306;5.634;2023-02-22T10:43:42;100998.38;;;18.32;51.06
60319;BME280;46163;52.306;5.634;2023-02-22T10:46:12;100987.38;;;18.33;50.92
60319;BME280;46163;52.306;5.634;2023-02-22T10:48:41;100987.38;;;18.33;50.92
60319;BME280;46163;52.306;5.634;2023-02-22T10:51:09;100982.53;;;18.35;50.85
60319;BME280;46163;52.306;5.634;2023-02-22T10:53:36;100987.66;;;18.37;50.61
60319;BME280;46163;52.306;5.634;2023-02-22T10:58:40;101001.69;;;18.39;50.72
60319;BME280;46163;52.306;5.634;2023-02-22T11:06:42;101005.47;;;18.38;50.81
60319;BME280;46163;52.306;5.634;2023-02-22T11:09:17;100999.25;;;18.38;50.62
60319;BME280;46163;52.306;5.634;2023-02-22T11:11:47;101004.09;;;18.35;50.89
60319;BME280;46163;52.306;5.634;2023-02-22T11:14:25;100996.81;;;18.36;50.97
60319;BME280;46163;52.306;5.634;2023-02-22T11:16:56;101003.53;;;18.33;50.78
60319;BME280;46163;52.306;5.634;2023-02-22T11:19:32;101002.69;;;18.33;51.00
60319;BME280;46163;52.306;5.634;2023-02-22T11:22:09;101000.84;;;18.33;50.78
60319;BME280;46163;52.306;5.634;2023-02-22T11:24:55;100995.66;;;18.32;50.83
60319;BME280;46163;52.306;5.634;2023-02-22T11:27:43;100990.28;;;18.32;51.00
60319;BME280;46163;52.306;5.634;2023-02-22T11:32:49;100988.09;;;18.29;50.11
60319;BME280;46163;52.306;5.634;2023-02-22T11:37:53;100967.88;;;18.26;50.10
60319;BME280;46163;52.306;5.634;2023-02-22T11:40:33;100966.25;;;18.25;49.82
60319;BME280;46163;52.306;5.634;2023-02-22T11:43:08;100960.50;;;18.22;50.01
60319;BME280;46163;52.306;5.634;2023-02-22T11:45:37;100965.34;;;18.20;49.79
60319;BME280;46163;52.306;5.634;2023-02-22T11:48:05;100960.19;;;18.18;49.83
60319;BME280;46163;52.306;5.634;2023-02-22T11:56:21;100951.31;;;18.18;50.32
60319;BME280;46163;52.306;5.634;2023-02-22T12:01:51;100960.75;;;18.20;50.42
60319;BME280;46163;52.306;5.634;2023-02-22T12:07:36;100967.31;;;18.24;50.52
60319;BME280;46163;52.306;5.634;2023-02-22T12:12:58;100961.66;;;18.26;50.48
60319;BME280;46163;52.306;5.634;2023-02-22T12:15:50;100963.84;;;18.29;50.40
60319;BME280;46163;52.306;5.634;2023-02-22T12:20:56;100954.69;;;18.30;50.44
60319;BME280;46163;52.306;5.634;2023-02-22T12:23:29;100950.69;;;18.32;50.23
60319;BME280;46163;52.306;5.634;2023-02-22T12:26:04;100958.22;;;18.30;50.32
60319;BME280;46163;52.306;5.634;2023-02-22T12:28:56;100959.56;;;18.33;50.38
60319;BME280;46163;52.306;5.634;2023-02-22T12:31:52;100950.47;;;18.34;50.18
60319;BME280;46163;52.306;5.634;2023-02-22T12:34:32;100956.66;;;18.34;50.40
60319;BME280;46163;52.306;5.634;2023-02-22T12:37:25;100957.47;;;18.35;50.18
60319;BME280;46163;52.306;5.634;2023-02-22T12:45:45;100952.56;;;18.32;50.29
60319;BME280;46163;52.306;5.634;2023-02-22T12:50:43;100960.09;;;18.30;50.30
60319;BME280;46163;52.306;5.634;2023-02-22T12:56:33;100959.03;;;18.31;50.39
60319;BME280;46163;52.306;5.634;2023-02-22T12:59:28;100953.06;;;18.29;50.48
60319;BME280;46163;52.306;5.634;2023-02-22T13:02:01;100952.25;;;18.28;50.47
60319;BME280;46163;52.306;5.634;2023-02-22T13:04:28;100948.75;;;18.28;50.60
60319;BME280;46163;52.306;5.634;2023-02-22T13:07:20;100942.00;;;18.25;50.50
60319;BME280;46163;52.306;5.634;2023-02-22T13:13:18;100935.78;;;18.25;50.53
60319;BME280;46163;52.306;5.634;2023-02-22T13:16:21;100938.72;;;18.23;50.53
60319;BME280;46163;52.306;5.634;2023-02-22T13:19:15;100941.19;;;18.25;50.39
60319;BME280;46163;52.306;5.634;2023-02-22T13:21:54;100929.81;;;18.23;50.60
60319;BME280;46163;52.306;5.634;2023-02-22T13:24:27;100925.00;;;18.25;50.59
60319;BME280;46163;52.306;5.634;2023-02-22T13:27:00;100926.31;;;18.22;50.47
60319;BME280;46163;52.306;5.634;2023-02-22T13:29:34;100926.31;;;18.22;50.47
60319;BME280;46163;52.306;5.634;2023-02-22T13:34:56;100942.00;;;18.25;50.65
60319;BME280;46163;52.306;5.634;2023-02-22T13:48:23;100938.28;;;18.31;50.60
60319;BME280;46163;52.306;5.634;2023-02-22T13:51:16;100944.47;;;18.32;50.42
60319;BME280;46163;52.306;5.634;2023-02-22T13:53:52;100935.09;;;18.34;50.46
60319;BME280;46163;52.306;5.634;2023-02-22T13:56:24;100939.69;;;18.34;50.52
60319;BME280;46163;52.306;5.634;2023-02-22T13:58:58;100925.97;;;18.35;50.46
60319;BME280;46163;52.306;5.634;2023-02-22T14:06:48;100928.13;;;18.39;50.22
60319;BME280;46163;52.306;5.634;2023-02-22T14:09:15;100927.06;;;18.40;50.32
60319;BME280;46163;52.306;5.634;2023-02-22T14:11:47;100930.84;;;18.39;50.43
60319;BME280;46163;52.306;5.634;2023-02-22T14:14:18;100929.47;;;18.36;50.48
60319;BME280;46163;52.306;5.634;2023-02-22T14:17:21;100933.78;;;18.37;50.94
60319;BME280;46163;52.306;5.634;2023-02-22T14:20:20;100930.53;;;18.35;51.44
60319;BME280;46163;52.306;5.634;2023-02-22T14:22:54;100935.91;;;18.35;51.46
60319;BME280;46163;52.306;5.634;2023-02-22T14:25:43;100935.09;;;18.34;51.71
60319;BME280;46163;52.306;5.634;2023-02-22T14:28:32;100941.78;;;18.32;51.59
60319;BME280;46163;52.306;5.634;2023-02-22T14:31:09;100942.03;;;18.30;51.65
60319;BME280;46163;52.306;5.634;2023-02-22T14:33:57;100946.06;;;18.28;51.67
60319;BME280;46163;52.306;5.634;2023-02-22T14:38:58;100935.53;;;18.26;51.51
60319;BME280;46163;52.306;5.634;2023-02-22T14:41:28;100934.13;;;18.24;51.35
60319;BME280;46163;52.306;5.634;2023-02-22T14:43:55;100938.97;;;18.22;51.72
60319;BME280;46163;52.306;5.634;2023-02-22T14:46:25;100938.16;;;18.21;51.82
60319;BME280;46163;52.306;5.634;2023-02-22T14:48:58;100926.81;;;18.19;51.75
60319;BME280;46163;52.306;5.634;2023-02-22T14:51:28;100934.66;;;18.21;51.62
60319;BME280;46163;52.306;5.634;2023-02-22T14:56:57;100938.41;;;18.20;51.59
60319;BME280;46163;52.306;5.634;2023-02-22T14:59:26;100951.31;;;18.18;51.52
60319;BME280;46163;52.306;5.634;2023-02-22T15:02:06;100945.09;;;18.17;51.74
60319;BME280;46163;52.306;5.634;2023-02-22T15:04:34;100936.22;;;18.17;51.77
60319;BME280;46163;52.306;5.634;2023-02-22T15:07:18;100941.34;;;18.18;51.46
60319;BME280;46163;52.306;5.634;2023-02-22T15:09:44;100941.34;;;18.18;51.34